• Join FlightAware (Why Join?)
  • Login
  • US Flag 
05:22AM EST


 

Airport Tracker/Info


-or-


 

Live Flight TrackerFlight Track Log ✈ UAL4588 ✈ 01-Sep-2013 ✈ KIAH - KGJT

Flight Track Log - Related Links

Times and Time Zones

All times are in EDT time to prevent confusion due to time zone crossing. See the UAL4588 flight status page for this flight to view local times or setup timezone preferences in your user account.

Time Position Orientation Groundspeed Altitude Reporting Facility
EDT Latitude Longitude Course Direction KTS MPH feet Rate Location/Type
10:01AM 29.9619 -95.3458 200° South 156 180 600  Level Houston Center
10:02AM 29.9294 -95.3594 200° South 197 227 2,100 1,980 Climbing Houston Center
10:03AM 29.9511 -95.3925 307° West 253 291 3,600 2,040 Climbing Houston Center
10:04AM 30.0128 -95.4069 349° North 252 290 5,700 2,400 Climbing Houston Center
10:05AM 30.0961 -95.4342 344° North 272 313 8,600 2,520 Climbing Houston Center
10:06AM 30.1700 -95.4672 339° North 281 323 10,900 1,500 Climbing Houston Center
10:07AM 30.2533 -95.5103 336° Northwest 323 372 11,700 1,320 Climbing Houston Center
10:08AM 30.3453 -95.5569 336° Northwest 354 407 13,600 1,800 Climbing Houston Center
10:09AM 30.4353 -95.6022 337° Northwest 355 409 15,400 1,800 Climbing Houston Center
10:10AM 30.5267 -95.6492 336° Northwest 358 412 17,300 1,800 Climbing Houston Center
10:11AM 30.6356 -95.7056 336° Northwest 358 412 19,200 1,560 Climbing Houston Center
10:12AM 30.7233 -95.7525 335° Northwest 359 413 20,500 1,260 Climbing Houston Center
10:13AM 30.8153 -95.8017 335° Northwest 361 415 21,800 1,260 Climbing Houston Center
10:14AM 30.9092 -95.8531 335° Northwest 368 423 23,100 1,200 Climbing Houston Center
10:15AM 31.0031 -95.9014 336° Northwest 368 423 24,300 1,080 Climbing Houston Center
10:16AM 31.0969 -95.9531 335° Northwest 370 426 25,400 1,140 Climbing Houston Center
10:17AM 31.1928 -95.9950 339° North 367 422 26,700 1,380 Climbing Houston Center
10:18AM 31.2903 -96.0314 342° North 366 421 28,300 1,620 Climbing Houston Center
10:19AM 31.4036 -96.0753 342° North 361 415 30,100 1,440 Climbing Houston Center
10:20AM 31.4833 -96.1058 342° North 354 407 31,300 1,140 Climbing Houston Center
10:21AM 31.5644 -96.1700 326° Northwest 366 421 32,500 1,140 Climbing Houston Center
10:22AM 31.6292 -96.2636 309° West 367 422 33,700 1,200 Climbing Houston Center
10:23AM 31.7064 -96.3731 310° West 370 426 35,000 1,020 Climbing Houston Center
10:24AM 31.7733 -96.4664 310° West 370 426 35,800 480 Climbing Houston Center
10:25AM 31.8414 -96.5636 310° West 378 435 36,000 60 Climbing Houston Center
10:26AM 31.9147 -96.6692 309° West 402 463 36,000  Level Houston Center
10:27AM 31.9917 -96.7803 309° West 428 493 36,000  Level Houston Center
10:28AM 32.0728 -96.8981 309° West 451 519 36,000  Level Houston Center
10:29AM 32.1753 -97.0500 309° West 455 524 36,000  Level Fort Worth Center
10:30AM 32.2569 -97.1750 308° West 467 537 36,000  Level Fort Worth Center
10:31AM 32.3386 -97.2881 311° West 467 537 36,000  Level Fort Worth Center
10:32AM 32.4178 -97.4108 307° West 467 537 36,000  Level Fort Worth Center
10:33AM 32.4992 -97.5267 310° West 467 537 36,000  Level Fort Worth Center
10:34AM 32.5783 -97.6453 308° West 467 537 36,000  Level Fort Worth Center
10:35AM 32.6575 -97.7614 309° West 467 537 36,000  Level Fort Worth Center
10:36AM 32.7239 -97.8581 309° West 467 537 36,000  Level Fort Worth Center
10:37AM 32.8111 -97.9869 309° West 467 537 36,000  Level Fort Worth Center
10:38AM 32.8942 -98.1086 309° West 467 537 36,000  Level Fort Worth Center
10:39AM 32.9706 -98.2281 307° West 467 537 36,000  Level Fort Worth Center
10:40AM 33.0492 -98.3478 308° West 467 537 36,000  Level Fort Worth Center
10:41AM 33.1378 -98.4728 310° West 467 537 36,000  Level Fort Worth Center
10:42AM 33.2181 -98.5953 308° West 462 532 36,000  Level Fort Worth Center
10:43AM 33.2983 -98.7158 309° West 467 537 36,000  Level Fort Worth Center
10:44AM 33.3764 -98.8364 308° West 467 537 36,000  Level Fort Worth Center
10:45AM 33.4542 -98.9522 309° West 462 532 36,000  Level Fort Worth Center
10:46AM 33.5300 -99.0681 308° West 451 519 36,000  Level Fort Worth Center
10:47AM 33.6078 -99.1892 308° West 451 519 36,000  Level Fort Worth Center
10:48AM 33.6811 -99.3031 308° West 446 513 36,000  Level Fort Worth Center
10:49AM 33.7567 -99.4172 309° West 440 506 36,000  Level Fort Worth Center
10:50AM 33.8319 -99.5364 307° West 445 512 36,000  Level Fort Worth Center
10:51AM 33.9111 -99.6583 308° West 450 518 36,000  Level Fort Worth Center
10:52AM 33.9881 -99.7781 308° West 450 518 36,000  Level Fort Worth Center
10:53AM 34.0631 -99.8981 307° West 455 524 36,000  Level Fort Worth Center
10:54AM 34.1378 -100.0156 308° West 455 524 36,000  Level Fort Worth Center
10:56AM 34.2606 -100.2053 308° West 448 516 36,000  Level Albuquerque Center
10:57AM 34.3367 -100.3242 308° West 448 516 36,000  Level Albuquerque Center
10:58AM 34.4089 -100.4461 306° West 446 513 36,000  Level Albuquerque Center
10:59AM 34.4997 -100.5883 308° West 445 512 36,000  Level Albuquerque Center
11:00AM 34.5742 -100.7078 307° West 444 511 36,000  Level Albuquerque Center
11:01AM 34.6481 -100.8261 307° West 443 510 36,000  Level Albuquerque Center
11:02AM 34.7214 -100.9444 307° West 441 507 36,000  Level Albuquerque Center
11:03AM 34.7939 -101.0639 306° West 440 506 36,000  Level Albuquerque Center
11:04AM 34.8664 -101.1808 307° West 435 501 36,000  Level Albuquerque Center
11:05AM 34.9386 -101.2978 307° West 434 499 36,000  Level Albuquerque Center
11:06AM 35.0161 -101.4256 307° West 440 506 36,000  Level Albuquerque Center
11:07AM 35.0906 -101.5444 307° West 441 507 36,000  Level Albuquerque Center
11:08AM 35.1619 -101.6631 306° West 440 506 36,000  Level Albuquerque Center
11:09AM 35.2358 -101.7875 306° West 445 512 36,000  Level Albuquerque Center
11:10AM 35.3128 -101.9100 308° West 449 517 36,000  Level Albuquerque Center
11:11AM 35.3831 -102.0364 304° West 446 513 36,000  Level Albuquerque Center
11:12AM 35.4558 -102.1561 307° West 441 507 36,000  Level Albuquerque Center
11:13AM 35.5281 -102.2767 306° West 440 506 36,000  Level Albuquerque Center
11:15AM 35.6150 -102.4197 307° West 437 503 36,000  Level Albuquerque Center
11:16AM 35.6861 -102.5414 306° West 438 504 36,000  Level Albuquerque Center
11:17AM 35.7564 -102.6617 306° West 436 502 36,000  Level Albuquerque Center
11:18AM 35.8303 -102.7850 306° West 443 510 36,000  Level Albuquerque Center
11:19AM 35.9028 -102.9122 305° West 451 519 36,000  Level Albuquerque Center
11:20AM 35.9769 -103.0378 306° West 446 513 36,000  Level Albuquerque Center
11:21AM 36.0508 -103.1628 306° West 447 514 36,000  Level Albuquerque Center
11:22AM 36.1300 -103.2817 310° West 447 514 36,000  Level Albuquerque Center
11:23AM 36.2178 -103.3875 316° Northwest 439 505 36,000  Level Albuquerque Center
11:24AM 36.3064 -103.4925 316° Northwest 439 505 36,000  Level Albuquerque Center
11:25AM 36.3942 -103.5981 316° Northwest 438 504 36,000  Level Albuquerque Center
11:26AM 36.4969 -103.7214 316° Northwest 437 503 36,000  Level Albuquerque Center
11:27AM 36.5847 -103.8258 316° Northwest 435 501 36,000  Level Albuquerque Center
11:28AM 36.6697 -103.9233 317° Northwest 431 496 36,000  Level Albuquerque Center
11:29AM 36.7539 -104.0206 317° Northwest 432 497 36,000  Level Albuquerque Center
11:30AM 36.8331 -104.1547 306° West 435 501 36,000  Level Albuquerque Center
11:31AM 36.8958 -104.2767 303° West 434 499 36,000  Level Albuquerque Center
11:32AM 36.9675 -104.4181 302° West 430 495 36,000  Level Denver Center
11:33AM 37.0292 -104.5400 302° West 430 495 36,000  Level Denver Center
11:34AM 37.0908 -104.6603 303° West 429 494 36,000  Level Albuquerque Center
11:35AM 37.1519 -104.7811 302° West 428 493 36,000  Level Albuquerque Center
11:36AM 37.2236 -104.9225 303° West 428 493 36,000  Level Albuquerque Center
11:37AM 37.2950 -105.0658 302° West 431 496 36,000  Level Denver Center
11:38AM 37.3564 -105.1908 302° West 428 493 36,000  Level Denver Center
11:39AM 37.4169 -105.3122 302° West 428 493 36,000  Level Denver Center
11:40AM 37.4981 -105.4753 302° West 430 495 36,000  Level Denver Center
11:41AM 37.5686 -105.6158 302° West 431 496 36,000  Level Denver Center
11:42AM 37.6300 -105.7397 302° West 434 499 36,000  Level Denver Center
11:43AM 37.7000 -105.8833 302° West 432 497 36,000  Level Denver Center
11:44AM 37.7606 -106.0078 302° West 433 498 36,000  Level Denver Center
11:46AM 37.8214 -106.1317 302° West 433 498 36,000  Level Denver Center
11:47AM 37.8886 -106.2778 300° West 431 496 36,000  Level Denver Center
11:48AM 37.9411 -106.3808 303° West 435 501 36,000  Level Denver Center
11:49AM 38.0203 -106.5492 301° West 433 498 36,000  Level Denver Center
11:50AM 38.0792 -106.6756 301° West 433 498 36,000  Level Denver Center
11:51AM 38.1517 -106.8183 303° West 431 496 36,000  Level Denver Center
11:52AM 38.2072 -106.9394 300° West 430 495 36,000  Level Denver Center
11:53AM 38.2692 -107.0689 301° West 427 491 36,000 -300 Level Denver Center
11:54AM 38.3372 -107.2144 301° West 433 498 35,500 -1,080 Descending Denver Center
11:55AM 38.3950 -107.3386 301° West 428 493 33,800 -1,920 Descending Denver Center
11:56AM 38.4631 -107.4828 301° West 426 490 31,600 -2,040 Descending Denver Center
11:57AM 38.5197 -107.6144 299° West 439 505 29,700 -1,740 Descending Denver Center
11:58AM 38.5719 -107.7217 302° West 446 513 28,100 -2,100 Descending Denver Center
11:59AM 38.6522 -107.8978 300° West 447 514 25,500 -2,220 Descending Denver Center
12:00PM 38.7117 -108.0264 301° West 437 503 23,600 -2,040 Descending Denver Center
12:01PM 38.7736 -108.1617 300° West 392 451 21,300 -2,100 Descending Denver Center
12:02PM 38.8231 -108.2706 300° West 368 423 19,400 -1,980 Descending Denver Center
12:03PM 38.8767 -108.3867 301° West 349 402 17,300 -2,160 Descending Denver Center
12:04PM 38.9336 -108.4928 305° West 340 391 15,000 -2,280 Descending Denver Center
12:05PM 38.9975 -108.5767 314° West 327 376 12,700 -2,040 Descending Denver Center
12:06PM 39.0561 -108.6508 316° Northwest 294 338 10,900 -1,860 Descending Denver Center
12:07PM 39.1092 -108.7225 314° West 256 295 9,000 -1,500 Descending Denver Center
12:08PM 39.1561 -108.7583 329° Northwest 212 244 7,900 -1,140 Descending Denver Center
12:09PM 39.1758 -108.6939 68° East 195 224 6,700 -600 Descending Denver Center
12:10PM 39.1817 -108.6292 83° East 179 206 6,700 -540 Level Denver Center
12:11PM 39.1606 -108.5914 126° Southeast 157 181 5,700 -960 Descending Denver Center
12:12PM 39.1331 -108.5411 125° Southeast 141 162 4,800 -420 Descending Denver Center
12:13PM 39.1125 -108.5036 125° Southeast 141 162 4,900 60 Climbing Denver Center